Time;durP1;ratioP1;P1;durP2;ratioP2;P2;SDS_P1;SDS_P2;PMS_P1;PMS_P2;Temp;Humidity;BMP_temperature;BMP_pressure;BME280_temperature;BME280_humidity;BME280_pressure;Samples;Min_cycle;Max_cycle;Signal;HPM_P1;HPM_P2
2022/06/28 00:01:20;;;;;;;;;4.33;2.00;;;;;21.54;45.62;101654.53;5076303;27;45640;-79
2022/06/28 00:03:46;;;;;;;;;3.00;2.00;;;;;21.65;45.60;101671.09;5076048;28;45349;-75
2022/06/28 00:06:13;;;;;;;;;2.33;2.00;;;;;21.69;45.97;101672.75;5076092;28;45389;-78
2022/06/28 00:08:38;;;;;;;;;4.00;1.00;;;;;21.50;45.72;101644.91;5075972;27;45422;-74
2022/06/28 00:11:05;;;;;;;;;1.00;1.00;;;;;21.66;45.74;101678.16;5075307;27;45459;-80
2022/06/28 00:13:31;;;;;;;;;2.00;1.00;;;;;21.63;45.96;101672.06;5074791;28;45631;-76
2022/06/28 00:16:06;;;;;;;;;4.00;2.00;;;;;21.43;45.75;101637.97;5078223;27;45263;-75
2022/06/28 00:18:39;;;;;;;;;2.00;1.67;;;;;21.49;46.04;101659.13;5074868;27;45368;-80
2022/06/28 00:21:06;;;;;;;;;1.00;1.00;;;;;21.54;45.90;101671.38;5074706;27;45567;-70
2022/06/28 00:23:39;;;;;;;;;1.67;1.67;;;;;21.52;46.08;101670.59;5075186;28;45466;-74
2022/06/28 00:26:06;;;;;;;;;1.00;1.00;;;;;21.49;46.13;101660.00;5075795;28;45335;-72
2022/06/28 00:28:31;;;;;;;;;1.67;1.67;;;;;21.47;46.17;101664.47;5074015;27;45440;-78
2022/06/28 00:30:57;;;;;;;;;1.00;1.00;;;;;21.46;46.28;101673.41;5076031;27;45526;-74
2022/06/28 00:33:23;;;;;;;;;1.00;1.00;;;;;21.17;46.35;101631.56;5077050;27;45401;-79
2022/06/28 00:35:48;;;;;;;;;3.00;1.33;;;;;21.21;46.64;101637.69;5079258;28;46226;-80
2022/06/28 00:38:16;;;;;;;;;2.00;2.00;;;;;21.27;46.94;101678.34;5081811;27;45329;-77
2022/06/28 00:40:46;;;;;;;;;3.00;1.00;;;;;21.18;47.71;101665.28;5082639;27;45381;-81
2022/06/28 00:43:14;;;;;;;;;2.00;2.00;;;;;21.06;47.50;101668.28;5074432;27;45460;-79
2022/06/28 00:45:42;;;;;;;;;2.67;1.00;;;;;21.00;47.33;101661.34;5072628;28;45519;-75
2022/06/28 00:48:10;;;;;;;;;3.67;1.00;;;;;21.08;47.26;101664.66;5077742;28;45538;-81
2022/06/28 00:50:38;;;;;;;;;1.00;1.00;;;;;21.06;47.21;101658.50;5084186;27;45586;-78
2022/06/28 00:53:22;;;;;;;;;3.00;2.33;;;;;21.06;47.15;101657.63;5098728;27;45444;-80
2022/06/28 00:55:49;;;;;;;;;3.00;2.00;;;;;21.12;47.33;101668.13;5081100;28;45848;-78
2022/06/28 00:58:15;;;;;;;;;1.00;1.00;;;;;21.05;47.04;101651.44;5080988;28;45298;-77
2022/06/28 01:00:48;;;;;;;;;1.00;1.00;;;;;20.96;47.20;101636.56;5080161;27;45522;-76
2022/06/28 01:03:19;;;;;;;;;1.00;1.00;;;;;21.06;47.27;101653.16;5080236;27;45475;-78
2022/06/28 01:05:46;;;;;;;;;1.67;1.67;;;;;21.08;47.33;101655.81;5080058;28;45479;-77
2022/06/28 01:08:12;;;;;;;;;4.00;1.00;;;;;21.04;47.13;101648.81;5079984;28;45421;-77
2022/06/28 01:10:40;;;;;;;;;1.00;1.00;;;;;21.11;47.24;101661.03;5078231;28;46157;-76
2022/06/28 01:13:09;;;;;;;;;1.00;1.00;;;;;21.06;47.56;101657.63;5078866;28;45514;-77
2022/06/28 01:15:37;;;;;;;;;6.67;1.00;;;;;21.08;47.19;101664.66;5079864;27;45641;-76
2022/06/28 01:18:04;;;;;;;;;1.00;1.00;;;;;21.03;47.57;101658.59;5068660;28;45446;-77
2022/06/28 01:20:31;;;;;;;;;1.67;1.67;;;;;21.08;47.24;101666.47;5076819;28;45593;-78
2022/06/28 01:22:57;;;;;;;;;2.00;2.00;;;;;20.97;47.25;101648.09;5073750;27;45310;-78
2022/06/28 01:25:24;;;;;;;;;1.00;1.00;;;;;21.05;47.32;101659.44;5076805;27;45512;-81
2022/06/28 01:27:51;;;;;;;;;0.33;0.33;;;;;20.92;47.39;101644.69;5079361;27;45365;-78
2022/06/28 01:30:18;;;;;;;;;1.33;1.33;;;;;21.00;47.52;101650.69;5087319;27;45403;-82
2022/06/28 01:32:45;;;;;;;;;1.00;1.00;;;;;20.92;47.32;101642.00;5083356;27;45350;-74
2022/06/28 01:35:12;;;;;;;;;0.00;0.00;;;;;21.01;47.46;101663.06;5067579;27;45392;-82
2022/06/28 01:37:40;;;;;;;;;1.00;1.00;;;;;20.86;48.23;101664.38;5081192;28;45361;-82
2022/06/28 01:40:08;;;;;;;;;2.00;1.00;;;;;20.45;48.24;101614.81;5079419;27;45471;-81
2022/06/28 01:42:34;;;;;;;;;0.00;0.00;;;;;20.71;48.33;101657.63;5077831;27;45301;-75
2022/06/28 01:45:00;;;;;;;;;1.00;1.00;;;;;20.70;47.93;101645.25;5077476;27;45578;-76
2022/06/28 01:47:28;;;;;;;;;1.67;1.67;;;;;20.73;47.99;101658.47;5077766;27;45545;-77
2022/06/28 01:49:54;;;;;;;;;0.67;0.67;;;;;20.79;47.86;101653.91;5077816;27;45462;-74
2022/06/28 01:52:21;;;;;;;;;2.33;0.00;;;;;20.72;47.80;101643.41;5063131;27;45365;-76
2022/06/28 01:54:47;;;;;;;;;1.00;1.00;;;;;20.80;47.81;101651.19;5077537;27;45854;-74
2022/06/28 01:57:14;;;;;;;;;1.00;1.00;;;;;20.61;47.77;101623.31;5082890;27;44843;-75
2022/06/28 01:59:40;;;;;;;;;1.00;1.00;;;;;20.81;48.07;101660.06;5086301;27;46321;-73
2022/06/28 02:02:07;;;;;;;;;2.33;1.00;;;;;20.77;47.73;101640.63;5076232;27;45355;-70
2022/06/28 02:04:33;;;;;;;;;1.00;1.00;;;;;20.80;47.95;101653.00;5077240;27;45520;-79
2022/06/28 02:06:59;;;;;;;;;1.67;0.67;;;;;20.64;47.54;101628.53;5076123;27;45433;-77
2022/06/28 02:09:25;;;;;;;;;2.00;0.00;;;;;20.75;47.91;101647.78;5076805;27;45437;-81
2022/06/28 02:11:52;;;;;;;;;1.33;1.00;;;;;20.75;47.75;101643.31;5076739;27;45783;-80
2022/06/28 02:14:18;;;;;;;;;1.00;1.00;;;;;20.72;47.73;101639.88;5076696;27;45497;-73
2022/06/28 02:16:44;;;;;;;;;2.00;2.00;;;;;20.78;47.76;101647.69;5077808;27;45309;-68
2022/06/28 02:19:10;;;;;;;;;1.00;1.00;;;;;20.75;47.78;101648.66;5075784;27;45762;-72
2022/06/28 02:21:40;;;;;;;;;1.00;1.00;;;;;20.75;47.65;101653.09;5076113;27;45459;-72
2022/06/28 02:24:07;;;;;;;;;0.33;0.33;;;;;20.67;47.76;101640.00;5076519;27;45614;-73
2022/06/28 02:26:34;;;;;;;;;1.00;1.00;;;;;20.71;47.46;101654.97;5062401;27;45507;-77
2022/06/28 02:29:04;;;;;;;;;1.00;1.00;;;;;20.68;47.69;101639.06;5076388;27;45300;-77
2022/06/28 02:31:30;;;;;;;;;3.00;1.00;;;;;20.73;47.69;101654.94;5079185;27;45437;-74
2022/06/28 02:33:56;;;;;;;;;1.00;1.00;;;;;20.56;47.63;101618.09;5076377;27;45470;-77
2022/06/28 02:41:46;;;;;;;;;0.33;0.33;;;;;20.27;48.43;101640.97;5073631;27;45494;-71
2022/06/28 02:44:12;;;;;;;;;2.33;1.00;;;;;20.18;48.98;101637.63;5076713;27;45511;-78
2022/06/28 02:46:38;;;;;;;;;2.67;2.67;;;;;20.08;49.40;101634.31;5077749;27;45636;-71
2022/06/28 02:49:04;;;;;;;;;1.33;1.33;;;;;20.02;49.38;101627.34;5071922;27;45442;-75
2022/06/28 02:51:30;;;;;;;;;1.00;1.00;;;;;19.85;49.50;101626.88;5070718;27;45547;-68
2022/06/28 02:53:56;;;;;;;;;1.00;1.00;;;;;19.69;49.36;101610.38;5073649;27;45694;-75
2022/06/28 02:56:22;;;;;;;;;0.33;0.33;;;;;19.80;50.06;101634.94;5076134;28;45357;-76
2022/06/28 02:58:51;;;;;;;;;1.00;1.00;;;;;19.75;50.33;101643.94;5075564;27;46217;-70
2022/06/28 03:01:17;;;;;;;;;1.00;1.00;;;;;19.59;50.25;101635.38;5071281;27;45858;-78
2022/06/28 03:03:43;;;;;;;;;1.33;1.00;;;;;19.48;50.60;101617.88;5072027;27;45439;-76
2022/06/28 03:06:09;;;;;;;;;1.00;1.00;;;;;19.51;50.57;101643.50;5076962;27;45476;-76
2022/06/28 03:08:35;;;;;;;;;1.67;1.00;;;;;19.33;50.74;101619.97;5076336;27;45450;-67
2022/06/28 03:11:01;;;;;;;;;2.00;0.00;;;;;19.37;50.35;101625.19;5076104;27;45539;-73
2022/06/28 03:13:26;;;;;;;;;1.00;1.00;;;;;19.40;49.94;101633.09;5074929;27;45318;-74
2022/06/28 03:15:56;;;;;;;;;0.67;0.67;;;;;19.39;50.45;101641.13;5076428;27;45406;-80
2022/06/28 03:18:22;;;;;;;;;0.00;0.00;;;;;19.32;50.32;101644.81;5075325;28;46782;-80
2022/06/28 03:20:49;;;;;;;;;1.00;1.00;;;;;19.29;50.45;101651.03;5109315;27;45337;-81
2022/06/28 03:23:15;;;;;;;;;1.00;1.00;;;;;19.15;50.36;101629.16;5076637;27;45762;-72
2022/06/28 03:25:41;;;;;;;;;2.67;0.67;;;;;19.29;49.99;101645.69;5065594;27;45519;-79
2022/06/28 03:28:06;;;;;;;;;1.00;1.00;;;;;19.23;50.23;101646.72;5070704;28;47978;-80
2022/06/28 03:30:32;;;;;;;;;0.33;0.33;;;;;19.15;50.16;101631.81;5076627;28;45459;-81
2022/06/28 03:32:57;;;;;;;;;1.00;0.00;;;;;19.17;50.56;101648.59;5072518;27;45699;-77
2022/06/28 03:35:23;;;;;;;;;0.33;0.33;;;;;19.10;49.84;101628.38;5073435;28;45219;-75
2022/06/28 03:37:49;;;;;;;;;1.00;0.00;;;;;19.15;49.84;101643.34;5072896;28;45535;-74
2022/06/28 03:40:14;;;;;;;;;1.67;0.00;;;;;19.02;50.14;101626.75;5081017;28;45313;-72
2022/06/28 03:42:40;;;;;;;;;0.67;0.67;;;;;18.91;50.14;101623.44;5077147;27;45651;-74
2022/06/28 03:45:06;;;;;;;;;0.00;0.00;;;;;19.05;50.13;101645.31;5072963;27;45500;-73
2022/06/28 03:47:32;;;;;;;;;2.00;0.00;;;;;19.04;50.25;101635.56;5066166;28;45517;-69
2022/06/28 03:49:59;;;;;;;;;0.00;0.00;;;;;19.06;50.58;101648.81;5072968;28;45361;-69
2022/06/28 03:52:28;;;;;;;;;1.00;1.00;;;;;18.90;50.47;101637.59;5074679;27;46440;-69
2022/06/28 03:54:56;;;;;;;;;2.00;1.00;;;;;18.94;50.46;101643.75;5075007;27;45568;-80
2022/06/28 03:57:23;;;;;;;;;0.00;0.00;;;;;18.98;50.58;101651.63;5074297;27;46021;-72
2022/06/28 03:59:49;;;;;;;;;3.00;1.00;;;;;18.95;51.03;101650.78;5074918;28;45483;-80
2022/06/28 04:02:16;;;;;;;;;2.00;0.00;;;;;18.77;51.04;101615.72;5075293;28;45417;-79
2022/06/28 04:04:41;;;;;;;;;0.67;0.67;;;;;18.85;51.58;101647.44;5069553;28;45237;-80
2022/06/28 04:07:07;;;;;;;;;1.67;1.00;;;;;18.70;51.57;101624.66;5061555;28;45460;-75
2022/06/28 04:09:32;;;;;;;;;1.00;1.00;;;;;18.73;51.57;101637.88;5075679;28;45993;-79
2022/06/28 04:11:58;;;;;;;;;2.33;2.00;;;;;18.62;51.44;101629.22;5079369;27;45576;-78
2022/06/28 04:14:23;;;;;;;;;2.00;2.00;;;;;18.78;51.02;101649.31;5079037;28;45219;-80
2022/06/28 04:16:49;;;;;;;;;1.00;1.00;;;;;18.92;51.07;101653.50;5076342;27;46108;-79
2022/06/28 04:19:15;;;;;;;;;0.00;0.00;;;;;18.88;50.92;101643.84;5074799;27;45306;-78
2022/06/28 04:21:40;;;;;;;;;0.00;0.00;;;;;18.92;51.04;101658.81;5075159;28;45384;-80
2022/06/28 04:24:06;;;;;;;;;3.00;1.00;;;;;18.88;51.48;101654.47;5059909;27;45366;-78
2022/06/28 04:26:32;;;;;;;;;2.00;0.00;;;;;18.68;51.08;101631.78;5074243;27;45488;-79
2022/06/28 04:28:57;;;;;;;;;0.67;0.00;;;;;18.91;50.88;101663.25;5075132;27;45670;-75
2022/06/28 04:31:23;;;;;;;;;1.00;1.00;;;;;18.84;50.98;101645.69;5075337;27;45983;-70
2022/06/28 04:33:49;;;;;;;;;0.67;0.00;;;;;18.91;50.74;101665.91;5075261;27;45289;-75
2022/06/28 04:36:14;;;;;;;;;0.00;0.00;;;;;18.90;50.44;101661.50;5074643;28;45534;-68
2022/06/28 04:38:40;;;;;;;;;0.00;0.00;;;;;18.92;50.03;101659.69;5080415;27;45463;-76
2022/06/28 04:41:06;;;;;;;;;1.00;0.00;;;;;18.94;50.16;101657.88;5081001;27;45525;-74
2022/06/28 04:43:31;;;;;;;;;0.00;0.00;;;;;18.97;50.09;101668.44;5079959;27;45254;-71
2022/06/28 04:45:57;;;;;;;;;0.67;0.67;;;;;18.96;49.67;101657.84;5079018;27;46236;-73
2022/06/28 04:48:23;;;;;;;;;1.33;0.67;;;;;19.11;49.63;101667.31;5112191;27;45577;-71
2022/06/28 04:50:48;;;;;;;;;2.00;1.00;;;;;19.14;49.99;101675.22;5079871;27;45382;-76
2022/06/28 04:53:14;;;;;;;;;0.67;0.67;;;;;18.97;49.92;101649.88;5074369;27;45306;-73
2022/06/28 04:55:40;;;;;;;;;1.00;1.00;;;;;18.84;49.50;101635.09;5075939;27;45487;-75
2022/06/28 04:58:07;;;;;;;;;0.33;0.33;;;;;19.18;49.09;101667.19;5076198;28;45528;-72
2022/06/28 05:00:32;;;;;;;;;1.00;1.00;;;;;19.01;49.18;101654.22;5075973;28;45478;-75
2022/06/28 05:02:58;;;;;;;;;0.00;0.00;;;;;19.20;48.80;101664.50;5079311;28;45382;-77
2022/06/28 05:05:24;;;;;;;;;2.00;0.00;;;;;19.27;48.54;101664.34;5077396;27;46252;-79
2022/06/28 05:07:49;;;;;;;;;0.00;0.00;;;;;19.29;47.85;101666.94;5077708;28;45457;-79
2022/06/28 05:10:15;;;;;;;;;1.00;1.00;;;;;19.39;47.69;101675.66;5078476;27;45356;-74
2022/06/28 05:12:41;;;;;;;;;0.00;0.00;;;;;19.23;47.49;101670.63;5078037;27;45296;-76
2022/06/28 05:15:07;;;;;;;;;0.67;0.67;;;;;19.01;48.08;101648.91;5075223;28;47760;-74
2022/06/28 05:17:33;;;;;;;;;1.00;1.00;;;;;19.20;47.98;101664.50;5079357;27;45238;-79
2022/06/28 05:19:58;;;;;;;;;0.00;0.00;;;;;19.40;48.00;101688.00;5078063;27;45208;-77
2022/06/28 05:22:25;;;;;;;;;1.00;1.00;;;;;19.43;48.24;101688.84;5076796;27;45671;-76
2022/06/28 05:24:50;;;;;;;;;1.00;1.00;;;;;19.48;48.01;101675.44;5077583;27;46192;-79
2022/06/28 05:27:16;;;;;;;;;0.67;0.67;;;;;19.60;47.73;101684.94;5078537;27;45448;-77
2022/06/28 05:29:42;;;;;;;;;3.33;1.67;;;;;19.58;47.82;101678.81;5075699;27;45444;-78
2022/06/28 05:32:09;;;;;;;;;0.00;0.00;;;;;19.54;47.17;101675.31;5083509;27;45531;-78
2022/06/28 05:34:34;;;;;;;;;2.33;1.00;;;;;19.52;47.86;101682.44;5072948;27;46720;-77
2022/06/28 05:37:00;;;;;;;;;1.00;1.00;;;;;19.44;47.91;101668.47;5068430;28;45483;-79
2022/06/28 05:39:26;;;;;;;;;1.00;1.00;;;;;19.32;48.04;101684.63;5078468;27;44978;-80
2022/06/28 05:41:52;;;;;;;;;3.00;1.00;;;;;19.42;48.04;101683.53;5078674;27;45401;-76
2022/06/28 05:44:17;;;;;;;;;3.00;1.00;;;;;19.51;47.70;101664.78;5078296;27;45468;-76
2022/06/28 05:46:44;;;;;;;;;3.00;1.00;;;;;19.71;47.51;101672.34;5079534;27;45239;-76
2022/06/28 05:49:10;;;;;;;;;2.00;2.00;;;;;19.73;47.43;101667.00;5078576;27;45840;-80
2022/06/28 05:51:36;;;;;;;;;1.00;1.00;;;;;19.61;47.38;101644.19;5077224;27;45388;-78
2022/06/28 05:54:02;;;;;;;;;2.00;2.00;;;;;19.83;46.93;101652.59;5075657;28;45656;-78
2022/06/28 05:56:29;;;;;;;;;0.00;0.00;;;;;19.94;47.04;101655.03;5081391;27;45432;-79
2022/06/28 05:58:55;;;;;;;;;1.00;1.00;;;;;20.13;46.66;101659.88;5080528;27;45610;-79
2022/06/28 06:01:22;;;;;;;;;2.00;1.00;;;;;20.26;46.00;101659.59;5077946;27;45527;-79
2022/06/28 06:03:48;;;;;;;;;2.00;2.00;;;;;20.29;45.74;101652.44;5078686;27;46547;-80
2022/06/28 06:06:14;;;;;;;;;3.00;2.00;;;;;20.26;45.80;101643.63;5079957;27;45423;-71
2022/06/28 06:08:40;;;;;;;;;1.00;1.00;;;;;20.41;45.82;101663.72;5076461;27;45418;-80
2022/06/28 06:11:07;;;;;;;;;2.00;0.00;;;;;20.44;45.05;101666.28;5076637;28;45381;-79
2022/06/28 06:13:34;;;;;;;;;1.00;1.00;;;;;20.46;44.74;101673.31;5077037;27;46179;-78
2022/06/28 06:15:59;;;;;;;;;1.00;1.00;;;;;20.40;45.33;101651.28;5077087;27;45368;-81
2022/06/28 06:18:25;;;;;;;;;1.00;1.00;;;;;20.40;45.55;101656.63;5076827;27;45507;-75
2022/06/28 06:20:51;;;;;;;;;2.00;1.00;;;;;20.43;45.41;101643.22;5080479;28;45425;-78
2022/06/28 06:23:17;;;;;;;;;2.00;2.00;;;;;20.50;44.81;101651.03;5076932;27;46020;-74
2022/06/28 06:25:42;;;;;;;;;1.00;1.00;;;;;20.60;44.59;101642.88;5076444;28;45628;-77
2022/06/28 06:28:08;;;;;;;;;1.00;1.00;;;;;20.77;44.07;101659.28;5076671;27;45726;-79
2022/06/28 06:30:34;;;;;;;;;0.00;0.00;;;;;20.63;44.01;101627.69;5076730;28;45754;-75
2022/06/28 06:33:00;;;;;;;;;1.00;1.00;;;;;20.48;44.13;101604.97;5080260;27;45951;-77
2022/06/28 06:35:25;;;;;;;;;0.00;0.00;;;;;20.66;44.44;101642.69;5079394;28;45362;-79
2022/06/28 06:37:53;;;;;;;;;1.00;1.00;;;;;20.75;44.14;101643.31;5080731;28;45505;-82
2022/06/28 06:40:19;;;;;;;;;1.67;1.00;;;;;20.88;44.23;101657.22;5078163;27;45451;-79
2022/06/28 06:42:45;;;;;;;;;3.00;1.00;;;;;20.70;44.19;101623.06;5079268;28;46702;-81
2022/06/28 06:45:11;;;;;;;;;1.00;1.00;;;;;20.93;43.97;101644.66;5081015;27;45607;-76
2022/06/28 06:47:37;;;;;;;;;1.00;1.00;;;;;21.09;44.16;101647.75;5077402;27;45274;-75
2022/06/28 06:50:08;;;;;;;;;1.00;1.00;;;;;21.25;43.71;101642.00;5076540;27;45602;-79
2022/06/28 06:52:36;;;;;;;;;2.67;1.00;;;;;21.43;43.50;101640.63;5076499;27;46261;-70
2022/06/28 06:55:02;;;;;;;;;3.00;1.00;;;;;21.60;43.39;101639.22;5076000;28;45540;-80
2022/06/28 06:57:28;;;;;;;;;2.67;1.33;;;;;21.51;43.71;101635.97;5079369;28;45431;-77
2022/06/28 06:59:54;;;;;;;;;5.00;3.00;;;;;21.43;43.51;101636.19;5082255;28;45452;-80
2022/06/28 07:02:20;;;;;;;;;1.00;1.00;;;;;21.34;43.46;101628.44;5078075;27;45546;-81
2022/06/28 07:04:46;;;;;;;;;2.00;2.00;;;;;21.35;44.01;101628.38;5077158;27;45433;-77
2022/06/28 07:07:12;;;;;;;;;2.00;2.00;;;;;21.37;43.71;101602.56;5076083;28;45580;-76
2022/06/28 07:09:37;;;;;;;;;2.00;2.00;;;;;21.69;43.42;101638.09;5077563;28;45381;-80
2022/06/28 07:12:04;;;;;;;;;1.00;1.00;;;;;21.77;43.62;101637.84;5076986;27;46220;-77
2022/06/28 07:14:35;;;;;;;;;2.00;2.00;;;;;21.61;43.57;101618.78;5079917;28;45454;-80
2022/06/28 07:17:01;;;;;;;;;3.00;1.67;;;;;21.47;43.51;101595.19;5080893;27;45595;-79
2022/06/28 07:19:26;;;;;;;;;4.00;1.00;;;;;21.42;43.56;101594.47;5080022;27;45397;-72
2022/06/28 07:21:52;;;;;;;;;2.33;2.33;;;;;21.46;43.93;101577.47;5082442;28;45742;-77
2022/06/28 07:24:18;;;;;;;;;2.00;2.00;;;;;21.56;43.89;101600.25;5084832;27;45433;-74
2022/06/28 07:26:44;;;;;;;;;6.33;2.00;;;;;21.68;43.97;101608.81;5077949;27;45494;-72
2022/06/28 07:29:10;;;;;;;;;1.33;0.00;;;;;21.71;44.06;101614.94;5076996;28;45554;-79
2022/06/28 07:31:36;;;;;;;;;2.00;2.00;;;;;21.56;44.25;101580.72;5075259;28;45579;-80
2022/06/28 07:34:02;;;;;;;;;2.00;2.00;;;;;21.66;44.16;101570.66;5077703;28;45999;-79
2022/06/28 07:36:28;;;;;;;;;3.00;3.00;;;;;22.08;43.66;101610.22;5061622;27;45278;-81
2022/06/28 07:38:54;;;;;;;;;2.67;2.00;;;;;21.96;43.86;101583.03;5077833;27;45656;-82
2022/06/28 07:41:22;;;;;;;;;1.33;1.33;;;;;22.01;43.78;101583.75;5076671;27;45718;-76
2022/06/28 07:43:50;;;;;;;;;5.67;2.67;;;;;22.01;43.75;101577.53;5075808;27;45882;-75
2022/06/28 07:46:19;;;;;;;;;4.00;2.33;;;;;22.02;43.89;101584.63;5075820;27;45611;-75
2022/06/28 07:48:45;;;;;;;;;1.00;1.00;;;;;22.19;43.93;101592.94;5080546;27;45500;-80
2022/06/28 07:53:57;;;;;;;;;1.33;1.33;;;;;22.53;43.50;101556.28;5080519;28;45373;-78
2022/06/28 07:56:23;;;;;;;;;2.00;2.00;;;;;22.68;43.17;101582.41;5079845;27;45387;-70
2022/06/28 07:58:48;;;;;;;;;2.33;1.67;;;;;22.72;43.11;101576.06;5075106;28;45675;-77
2022/06/28 08:01:15;;;;;;;;;2.00;2.00;;;;;22.54;43.15;101547.31;5074993;27;45999;-74
2022/06/28 08:03:41;;;;;;;;;3.00;2.00;;;;;22.76;43.04;101575.03;5075660;27;45536;-76
2022/06/28 08:06:07;;;;;;;;;4.00;4.00;;;;;22.71;42.79;101566.31;5075084;27;45583;-73
2022/06/28 08:08:33;;;;;;;;;3.00;3.00;;;;;22.41;43.20;101541.56;5075527;27;45638;-77
2022/06/28 08:10:59;;;;;;;;;2.67;2.67;;;;;22.69;42.91;101575.31;5075008;27;46185;-77
2022/06/28 08:13:25;;;;;;;;;4.00;4.00;;;;;22.59;43.05;101577.41;5075188;27;45471;-76
2022/06/28 08:15:51;;;;;;;;;4.00;4.00;;;;;22.53;43.16;101569.63;5079101;27;45293;-73
2022/06/28 08:18:17;;;;;;;;;3.00;3.00;;;;;22.61;43.32;101567.53;5078695;27;45353;-75
2022/06/28 08:20:43;;;;;;;;;3.00;3.00;;;;;22.71;42.87;101552.06;5076997;27;45441;-73
2022/06/28 08:23:09;;;;;;;;;3.00;2.33;;;;;22.79;42.01;101540.19;5076586;27;45434;-75
2022/06/28 08:25:35;;;;;;;;;1.67;1.67;;;;;23.01;42.20;101556.31;5076648;28;45587;-74
2022/06/28 08:28:01;;;;;;;;;2.00;2.00;;;;;23.14;42.17;101559.44;5078047;27;45428;-74
2022/06/28 08:30:27;;;;;;;;;6.00;3.00;;;;;23.32;41.89;101559.66;5078383;27;46151;-78
2022/06/28 08:32:54;;;;;;;;;3.33;3.00;;;;;23.29;42.03;101548.16;5081954;27;44859;-76
2022/06/28 08:35:29;;;;;;;;;3.67;3.00;;;;;23.18;41.71;101533.44;5072400;27;45529;-74
2022/06/28 08:37:54;;;;;;;;;3.00;3.00;;;;;23.17;41.81;101519.22;5076016;28;46288;-73
2022/06/28 08:40:25;;;;;;;;;6.00;4.00;;;;;23.36;41.57;101535.44;5080906;27;45499;-77
2022/06/28 08:42:55;;;;;;;;;4.33;4.33;;;;;23.39;41.16;101532.63;5078440;27;46243;-72
2022/06/28 08:45:22;;;;;;;;;2.67;2.00;;;;;23.49;41.47;101526.00;5075449;27;45527;-77
2022/06/28 08:47:52;;;;;;;;;4.33;4.00;;;;;23.53;41.49;101518.72;5073215;27;45706;-77
2022/06/28 08:50:32;;;;;;;;;4.00;4.00;;;;;23.22;40.44;101498.53;5073520;28;45408;-78
2022/06/28 08:53:01;;;;;;;;;5.00;3.00;;;;;23.25;40.75;101509.13;5074050;27;45692;-78
2022/06/28 08:55:30;;;;;;;;;3.00;3.00;;;;;23.45;40.17;101531.53;5074541;27;45449;-77
2022/06/28 08:57:58;;;;;;;;;4.00;3.00;;;;;23.50;40.01;101498.31;5076369;28;45420;-77
2022/06/28 09:00:32;;;;;;;;;3.00;3.00;;;;;23.31;39.67;101456.38;5078181;27;46642;-79
2022/06/28 09:02:58;;;;;;;;;5.00;4.00;;;;;23.62;39.52;101504.13;5075394;27;45471;-71
2022/06/28 09:05:25;;;;;;;;;5.33;5.33;;;;;23.63;39.46;101506.75;5074920;27;45474;-71
2022/06/28 09:07:54;;;;;;;;;6.33;5.00;;;;;23.32;38.45;101458.94;5064373;27;45342;-72
2022/06/28 09:10:20;;;;;;;;;4.33;1.00;;;;;23.60;37.64;101496.16;5074164;28;46861;-77
2022/06/28 09:12:56;;;;;;;;;3.00;2.00;;;;;23.60;37.39;101501.50;5081756;27;45325;-75
2022/06/28 09:15:25;;;;;;;;;2.00;2.00;;;;;23.67;37.28;101494.09;5081956;27;45458;-77
2022/06/28 09:17:55;;;;;;;;;3.33;3.00;;;;;23.60;37.04;101492.63;5080433;28;45456;-73
2022/06/28 09:20:37;;;;;;;;;1.00;1.00;;;;;23.67;36.04;101494.97;5080360;28;46499;-77
2022/06/28 09:23:03;;;;;;;;;2.00;2.00;;;;;23.48;36.39;101452.06;5077178;27;45517;-75
2022/06/28 09:25:31;;;;;;;;;2.00;2.00;;;;;23.62;36.43;101478.25;5075179;28;45699;-76
2022/06/28 09:27:59;;;;;;;;;2.00;2.00;;;;;23.68;35.94;101478.00;5077261;27;45478;-73
2022/06/28 09:30:28;;;;;;;;;2.00;2.00;;;;;23.70;35.78;101454.75;5076837;27;45341;-76
2022/06/28 09:32:54;;;;;;;;;3.00;2.00;;;;;23.42;34.66;101427.38;5077464;28;45427;-77
2022/06/28 09:35:24;;;;;;;;;1.00;1.00;;;;;23.57;34.46;101461.53;5068203;27;45523;-76
2022/06/28 09:37:56;;;;;;;;;2.00;2.00;;;;;23.60;34.59;101469.41;5072391;28;45525;-72
2022/06/28 09:40:28;;;;;;;;;2.33;2.00;;;;;23.45;34.38;101427.28;5077301;27;46153;-75
2022/06/28 09:43:10;;;;;;;;;4.00;3.00;;;;;23.50;34.63;101431.50;5065287;27;45459;-76
2022/06/28 09:45:38;;;;;;;;;6.33;3.00;;;;;23.73;35.17;101452.84;5065419;27;46737;-75
2022/06/28 09:48:05;;;;;;;;;2.00;2.00;;;;;23.73;35.43;101471.56;5066887;27;46251;-73
2022/06/28 09:50:34;;;;;;;;;1.00;1.00;;;;;23.67;34.57;101446.84;5076481;27;45444;-74
2022/06/28 09:53:01;;;;;;;;;2.00;2.00;;;;;23.85;35.23;101449.72;5079901;27;45475;-76
2022/06/28 09:55:29;;;;;;;;;3.00;3.00;;;;;23.84;34.67;101427.44;5080796;27;45312;-74
2022/06/28 09:57:55;;;;;;;;;2.00;2.00;;;;;24.04;34.95;101450.66;5079622;27;45504;-75
2022/06/28 10:00:24;;;;;;;;;3.00;3.00;;;;;23.87;34.83;101424.66;5074338;27;47674;-72
2022/06/28 10:02:51;;;;;;;;;2.00;2.00;;;;;23.93;34.74;101426.19;5078595;27;45434;-77
2022/06/28 10:05:17;;;;;;;;;1.67;1.67;;;;;24.01;34.72;101418.69;5080570;27;45441;-77
2022/06/28 10:07:44;;;;;;;;;1.00;1.00;;;;;24.15;34.09;101430.59;5079700;27;45479;-76
2022/06/28 10:10:10;;;;;;;;;1.00;1.00;;;;;;;;5080600;27;45408;-80
2022/06/28 10:15:23;;;;;;;;;1.33;1.00;;;;;24.25;32.94;101405.16;5076807;27;45384;-79
2022/06/28 10:18:11;;;;;;;;;1.67;1.67;;;;;24.33;33.02;101411.91;5077831;27;45393;-74
2022/06/28 10:20:38;;;;;;;;;1.00;1.00;;;;;24.20;34.02;101388.44;5079671;27;45545;-78
2022/06/28 10:23:27;;;;;;;;;1.00;1.00;;;;;24.49;33.64;101413.94;5079908;27;45494;-80
2022/06/28 10:26:05;;;;;;;;;2.00;2.00;;;;;24.57;33.52;101417.13;5089179;27;45406;-78
2022/06/28 10:28:44;;;;;;;;;2.00;2.00;;;;;24.46;33.22;101381.91;5086587;27;45290;-79
2022/06/28 10:31:24;;;;;;;;;2.00;2.00;;;;;24.66;32.41;101406.00;5082026;27;45443;-78
2022/06/28 10:33:58;;;;;;;;;2.00;2.00;;;;;24.57;33.06;101398.38;5077472;27;45436;-77
2022/06/28 10:36:26;;;;;;;;;2.00;2.00;;;;;24.54;32.54;101390.50;5062259;28;45594;-76
2022/06/28 10:39:01;;;;;;;;;3.00;2.00;;;;;24.74;32.03;101402.97;5074667;28;45942;-75
2022/06/28 10:41:44;;;;;;;;;1.33;1.33;;;;;24.76;32.24;101406.44;5075720;28;45472;-75
2022/06/28 10:44:16;;;;;;;;;2.00;2.00;;;;;24.85;32.75;101397.09;5076213;28;45392;-79
2022/06/28 10:46:49;;;;;;;;;2.00;1.67;;;;;24.81;32.09;101390.16;5080443;27;45455;-78
2022/06/28 10:49:15;;;;;;;;;3.00;3.00;;;;;24.68;32.08;101380.00;5077759;27;45471;-77
2022/06/28 10:52:02;;;;;;;;;1.67;1.67;;;;;24.72;32.38;101386.09;5076053;28;45875;-80
2022/06/28 10:54:28;;;;;;;;;2.00;2.00;;;;;24.65;31.86;101357.84;5075581;27;45516;-81
2022/06/28 10:56:56;;;;;;;;;2.00;2.00;;;;;24.93;31.71;101389.56;5077371;28;45361;-79
2022/06/28 10:59:37;;;;;;;;;3.33;2.00;;;;;25.09;31.98;101389.69;5076713;27;45459;-78
2022/06/28 11:02:03;;;;;;;;;2.00;2.00;;;;;25.06;31.90;101361.25;5076092;28;45664;-72
2022/06/28 11:04:31;;;;;;;;;2.33;2.33;;;;;25.24;31.78;101372.88;5076577;27;45445;-74
2022/06/28 11:07:04;;;;;;;;;1.00;1.00;;;;;25.31;30.78;101371.63;5077053;27;45344;-77
2022/06/28 11:09:46;;;;;;;;;2.67;2.67;;;;;25.44;31.66;101376.38;5066068;27;45901;-75
2022/06/28 11:12:27;;;;;;;;;5.00;4.67;;;;;25.57;30.72;101369.47;5077847;27;45583;-75
2022/06/28 11:15:12;;;;;;;;;6.00;6.00;;;;;25.67;29.82;101367.19;5073184;28;45433;-71
2022/06/28 11:17:41;;;;;;;;;2.00;2.00;;;;;25.51;29.30;101357.25;5067047;27;45377;-74
2022/06/28 11:20:15;;;;;;;;;3.00;3.00;;;;;25.52;29.88;101342.00;5075736;27;46010;-69
2022/06/28 11:22:46;;;;;;;;;2.33;2.33;;;;;25.78;29.60;101365.69;5077127;27;45303;-70
2022/06/28 11:25:18;;;;;;;;;5.00;5.00;;;;;25.54;29.26;101324.03;5075414;27;45637;-72
2022/06/28 11:27:47;;;;;;;;;3.00;3.00;;;;;25.80;29.75;101365.63;5065934;28;45625;-67
2022/06/28 11:30:14;;;;;;;;;15.00;13.33;;;;;25.93;29.95;101371.22;5073634;27;46382;-69
2022/06/28 11:32:43;;;;;;;;;166.00;151.50;;;;;25.95;30.20;101346.03;5073825;27;46203;-77
2022/06/28 11:35:18;;;;;;;;;266.00;235.00;;;;;26.05;30.29;101349.09;5065491;27;45349;-73
2022/06/28 11:37:53;;;;;;;;;148.67;135.00;;;;;25.89;30.34;101313.28;5073048;27;45583;-71